Time;durP1;ratioP1;P1;durP2;ratioP2;P2;SDS_P1;SDS_P2;PMS_P1;PMS_P2;Temp;Humidity;BMP_temperature;BMP_pressure;BME280_temperature;BME280_humidity;BME280_pressure;Samples;Min_cycle;Max_cycle;Signal;HPM_P1;HPM_P2
2022/01/06 06:14:45;;;;;;;15.07;2.23;;;1.70;99.90;;;;;;6139381;23;20048;31
2022/01/06 06:17:11;;;;;;;16.85;2.28;;;1.70;99.90;;;;;;6124482;23;20307;-96
2022/01/06 06:19:37;;;;;;;12.95;2.55;;;1.70;99.90;;;;;;6111293;23;20018;-96
2022/01/06 06:22:03;;;;;;;19.42;3.50;;;1.70;99.90;;;;;;6090483;23;20030;-96
2022/01/06 06:24:29;;;;;;;12.68;2.30;;;1.60;99.90;;;;;;6117766;23;20018;-96
2022/01/06 06:26:54;;;;;;;10.95;2.03;;;1.60;99.90;;;;;;6119702;23;20033;-96
2022/01/06 06:29:22;;;;;;;9.77;1.80;;;1.60;99.90;;;;;;6099315;23;20074;-96
2022/01/06 06:31:48;;;;;;;12.40;2.35;;;1.60;99.90;;;;;;6112245;23;20025;-96
2022/01/06 06:34:14;;;;;;;11.70;1.88;;;1.50;99.90;;;;;;6088218;23;20018;-96
2022/01/06 06:36:40;;;;;;;11.95;2.17;;;1.60;99.90;;;;;;6090206;23;20025;-96
2022/01/06 06:39:06;;;;;;;11.20;2.00;;;1.50;99.90;;;;;;6093291;23;20089;-96
2022/01/06 06:41:32;;;;;;;17.38;2.50;;;1.50;99.90;;;;;;6100525;23;20029;-96
2022/01/06 06:43:58;;;;;;;13.18;2.47;;;1.50;99.90;;;;;;6076028;23;20014;-96
2022/01/06 06:46:24;;;;;;;12.10;2.10;;;1.50;99.90;;;;;;6104877;23;20070;-96
2022/01/06 06:48:50;;;;;;;12.93;2.25;;;1.50;99.90;;;;;;6090198;23;20021;-96
2022/01/06 06:51:15;;;;;;;11.60;2.22;;;1.50;99.90;;;;;;6117004;23;20040;-96
2022/01/06 06:53:42;;;;;;;11.63;2.45;;;1.40;99.90;;;;;;6100393;23;20016;-96
2022/01/06 06:56:08;;;;;;;18.30;2.53;;;1.40;99.90;;;;;;6122437;23;20018;-96
2022/01/06 06:58:33;;;;;;;11.48;2.17;;;1.40;99.90;;;;;;6126011;23;20013;-96
2022/01/06 07:03:34;;;;;;;15.80;2.33;;;1.30;99.90;;;;;;6250987;22;20020;-96
2022/01/06 07:06:00;;;;;;;11.63;2.03;;;1.30;99.90;;;;;;6197586;23;20062;-95
2022/01/06 07:08:25;;;;;;;14.13;2.40;;;1.40;99.90;;;;;;6192686;23;20012;-95
2022/01/06 07:10:51;;;;;;;14.48;1.98;;;1.30;99.90;;;;;;6198470;23;20020;-95
2022/01/06 07:13:18;;;;;;;11.65;2.35;;;1.20;99.90;;;;;;6194559;23;20019;-93
2022/01/06 07:15:45;;;;;;;13.40;2.80;;;1.20;99.90;;;;;;6193460;23;20376;-94
2022/01/06 07:18:11;;;;;;;10.88;2.38;;;1.10;99.90;;;;;;6192121;23;20145;-93
2022/01/06 07:20:37;;;;;;;9.35;2.22;;;1.00;99.90;;;;;;6192894;23;20012;-92
2022/01/06 07:23:03;;;;;;;11.35;2.10;;;0.90;99.90;;;;;;6189593;23;20021;-93
2022/01/06 07:25:29;;;;;;;12.95;2.97;;;0.80;99.90;;;;;;6217825;23;20062;-95
2022/01/06 07:27:54;;;;;;;15.35;2.50;;;0.80;99.90;;;;;;6217121;23;20022;-90
2022/01/06 07:30:20;;;;;;;10.75;2.30;;;0.70;99.90;;;;;;6216434;23;20008;-90
2022/01/06 07:32:49;;;;;;;14.75;3.75;;;0.60;99.90;;;;;;6215114;23;20016;-88
2022/01/06 07:35:17;;;;;;;12.02;2.00;;;0.60;99.90;;;;;;6191348;23;20022;-90
2022/01/06 07:37:43;;;;;;;9.60;2.08;;;0.50;99.90;;;;;;6214964;23;20020;-91
2022/01/06 07:40:09;;;;;;;9.82;2.55;;;0.50;99.90;;;;;;6216306;23;20035;-89
2022/01/06 07:42:36;;;;;;;12.02;2.00;;;0.50;99.90;;;;;;6187768;23;20027;-90
2022/01/06 07:45:03;;;;;;;15.32;2.35;;;0.50;99.90;;;;;;6215624;23;20020;-90
2022/01/06 07:47:31;;;;;;;14.30;3.17;;;0.50;99.90;;;;;;6215721;23;20008;-89
2022/01/06 07:49:57;;;;;;;15.25;3.08;;;0.50;99.90;;;;;;6216014;23;20066;-89
2022/01/06 07:52:22;;;;;;;18.08;2.85;;;0.60;99.90;;;;;;6191069;23;20334;-89
2022/01/06 07:54:48;;;;;;;17.25;2.42;;;0.70;99.90;;;;;;6214393;23;20020;-88
2022/01/06 07:57:14;;;;;;;13.15;2.53;;;0.70;99.90;;;;;;6191316;23;20383;-88
2022/01/06 07:59:40;;;;;;;10.65;2.00;;;0.70;99.90;;;;;;6214945;23;20016;-88
2022/01/06 08:02:07;;;;;;;14.32;3.15;;;0.80;99.90;;;;;;6212874;23;20492;-88
2022/01/06 08:04:34;;;;;;;12.75;2.15;;;0.90;99.90;;;;;;6215044;23;20388;-88
2022/01/06 08:06:59;;;;;;;11.43;2.20;;;0.80;99.90;;;;;;6215918;23;20346;-88
2022/01/06 08:09:25;;;;;;;14.73;2.35;;;0.90;99.90;;;;;;6214901;23;20016;-88
2022/01/06 08:11:51;;;;;;;13.98;2.90;;;0.80;99.90;;;;;;6189889;23;20058;-88
2022/01/06 08:14:16;;;;;;;11.40;2.15;;;0.80;99.90;;;;;;6191264;23;20012;-87
2022/01/06 08:16:42;;;;;;;13.52;2.55;;;0.80;99.90;;;;;;6188641;23;20344;-88
2022/01/06 08:19:07;;;;;;;13.18;2.78;;;0.70;99.90;;;;;;6190971;23;20382;-89
2022/01/06 08:21:34;;;;;;;12.18;2.20;;;0.70;99.90;;;;;;6189574;23;20012;-88
2022/01/06 08:24:00;;;;;;;11.65;2.30;;;0.60;99.90;;;;;;6190386;23;20012;-89
2022/01/06 08:26:26;;;;;;;14.60;3.13;;;0.60;99.90;;;;;;6190000;23;20020;-88
2022/01/06 08:28:51;;;;;;;14.75;2.72;;;0.60;99.90;;;;;;6190336;23;20341;-88
2022/01/06 08:31:17;;;;;;;11.43;2.67;;;0.60;99.90;;;;;;6191074;23;20020;-88
2022/01/06 08:33:44;;;;;;;11.55;2.22;;;0.60;99.90;;;;;;6189395;23;20011;-88
2022/01/06 08:36:10;;;;;;;12.13;2.28;;;0.60;99.90;;;;;;6190528;23;20016;-88
2022/01/06 08:38:36;;;;;;;13.90;2.70;;;0.60;99.90;;;;;;6189272;23;20019;-88
2022/01/06 08:41:02;;;;;;;15.63;2.53;;;0.70;99.90;;;;;;6215829;23;20027;-88
2022/01/06 08:43:27;;;;;;;12.45;2.72;;;0.70;99.90;;;;;;6189980;23;20019;-88
2022/01/06 08:45:59;;;;;;;13.82;3.42;;;0.70;99.90;;;;;;6190055;23;20020;-88
2022/01/06 08:48:26;;;;;;;14.00;2.95;;;0.70;99.90;;;;;;6190111;23;20207;-87
2022/01/06 08:50:52;;;;;;;14.90;2.75;;;0.70;99.90;;;;;;6189870;23;20031;-89
2022/01/06 08:53:18;;;;;;;12.60;2.40;;;0.80;99.90;;;;;;6213809;23;20043;-89
2022/01/06 08:55:47;;;;;;;13.38;2.50;;;0.80;99.90;;;;;;6189228;23;20067;-91
2022/01/06 08:58:16;;;;;;;10.52;2.22;;;0.80;99.90;;;;;;6217039;23;20016;-89
2022/01/06 09:00:42;;;;;;;11.95;2.25;;;0.90;99.90;;;;;;6189046;23;20020;-90
2022/01/06 09:03:09;;;;;;;11.02;2.28;;;0.90;99.90;;;;;;6189892;23;20099;-92
2022/01/06 09:05:35;;;;;;;13.98;2.53;;;0.90;99.90;;;;;;6216424;23;20027;-92
2022/01/06 09:08:01;;;;;;;12.20;2.50;;;1.00;99.90;;;;;;6191706;23;20473;-91
2022/01/06 09:10:30;;;;;;;12.45;2.75;;;1.00;99.90;;;;;;6191708;23;20019;-92
2022/01/06 09:12:56;;;;;;;14.27;3.55;;;1.00;99.90;;;;;;6216557;23;20409;-92
2022/01/06 09:15:22;;;;;;;20.50;3.03;;;1.20;99.90;;;;;;6191914;23;20081;-90
2022/01/06 09:17:48;;;;;;;16.52;3.38;;;1.10;99.90;;;;;;6190975;23;20020;-91
2022/01/06 09:20:14;;;;;;;19.23;3.00;;;1.20;99.90;;;;;;6217029;23;20455;-91
2022/01/06 09:22:44;;;;;;;12.15;2.45;;;1.20;99.90;;;;;;6191031;23;20020;-91
2022/01/06 09:25:11;;;;;;;13.90;2.55;;;1.40;99.90;;;;;;6218149;23;20016;-91
2022/01/06 09:27:37;;;;;;;16.55;3.67;;;1.40;99.90;;;;;;6224189;23;20016;-91
2022/01/06 09:30:04;;;;;;;14.40;2.90;;;1.50;99.90;;;;;;6242874;22;20047;-92
2022/01/06 09:32:30;;;;;;;12.10;2.63;;;1.60;99.90;;;;;;6224670;23;20016;-91
2022/01/06 09:34:55;;;;;;;16.17;3.00;;;1.70;99.90;;;;;;6217039;22;20000;-91
2022/01/06 09:37:21;;;;;;;12.90;2.97;;;1.80;99.90;;;;;;6211717;23;20089;-90
2022/01/06 09:39:47;;;;;;;17.08;2.92;;;1.80;99.90;;;;;;6195184;23;20019;-90
2022/01/06 09:42:15;;;;;;;22.75;3.42;;;1.90;99.90;;;;;;6218090;23;20360;-91
2022/01/06 09:44:41;;;;;;;16.63;2.55;;;2.00;99.90;;;;;;6190495;23;20017;-90
2022/01/06 09:47:07;;;;;;;11.80;2.97;;;2.10;99.90;;;;;;6216150;23;20016;-90
2022/01/06 09:49:42;;;;;;;19.58;2.75;;;2.10;99.90;;;;;;6191041;23;20028;-91
2022/01/06 09:52:08;;;;;;;17.83;3.10;;;2.30;99.90;;;;;;6191731;23;20368;-91
2022/01/06 09:54:36;;;;;;;16.35;2.83;;;2.30;99.90;;;;;;6190536;23;20066;-90
2022/01/06 09:57:03;;;;;;;14.38;2.60;;;2.30;99.90;;;;;;6216364;23;20019;-91
2022/01/06 09:59:29;;;;;;;17.40;3.90;;;2.40;99.90;;;;;;6190386;23;20008;-91
2022/01/06 10:01:55;;;;;;;15.65;3.13;;;2.50;99.90;;;;;;6179267;23;20442;-91
2022/01/06 10:04:27;;;;;;;18.08;2.85;;;2.60;99.90;;;;;;6159650;23;20016;-91
2022/01/06 10:07:02;;;;;;;14.40;2.80;;;2.60;99.90;;;;;;6159024;23;20283;-90
2022/01/06 10:09:28;;;;;;;17.48;3.22;;;2.70;99.90;;;;;;6160700;23;20013;-93
2022/01/06 10:11:56;;;;;;;16.40;3.55;;;2.80;99.90;;;;;;6186132;23;20392;-93
2022/01/06 10:14:31;;;;;;;17.85;3.20;;;2.80;99.90;;;;;;6161145;23;20091;-93
2022/01/06 10:16:58;;;;;;;19.45;3.60;;;2.90;99.90;;;;;;6162963;23;20012;-92
2022/01/06 10:19:24;;;;;;;16.58;3.88;;;3.00;99.90;;;;;;6163797;23;20016;-93
2022/01/06 10:21:57;;;;;;;17.73;3.05;;;3.10;99.90;;;;;;6161689;23;20020;-91
2022/01/06 10:24:26;;;;;;;13.43;3.28;;;3.10;99.90;;;;;;6164074;23;20023;-93
2022/01/06 10:26:59;;;;;;;15.57;3.17;;;3.10;99.90;;;;;;6164128;23;20028;-92
2022/01/06 10:29:30;;;;;;;17.98;3.50;;;3.20;99.90;;;;;;6161614;23;20071;-93
2022/01/06 10:32:14;;;;;;;14.05;2.90;;;3.30;99.90;;;;;;6183303;23;20020;-89
2022/01/06 10:34:45;;;;;;;16.25;3.55;;;3.40;99.90;;;;;;6182286;23;20016;-89
2022/01/06 10:37:21;;;;;;;14.57;3.05;;;3.50;99.90;;;;;;6160156;23;20025;-88
2022/01/06 10:39:49;;;;;;;17.02;3.33;;;3.60;99.90;;;;;;6183728;23;20024;-89
2022/01/06 10:42:15;;;;;;;17.48;2.92;;;3.60;99.90;;;;;;6184116;23;20103;-89
2022/01/06 10:44:55;;;;;;;17.50;3.35;;;3.70;99.90;;;;;;6158387;23;20449;-88
2022/01/06 10:47:29;;;;;;;19.38;3.10;;;3.70;99.90;;;;;;6159824;23;20016;-88
2022/01/06 10:50:06;;;;;;;12.88;3.17;;;3.80;99.90;;;;;;6158755;23;20020;-88
2022/01/06 10:52:32;;;;;;;13.23;3.33;;;3.80;99.90;;;;;;6183837;23;20020;-88
2022/01/06 10:55:11;;;;;;;16.77;2.70;;;3.90;99.90;;;;;;6159245;23;20021;-89
2022/01/06 10:57:56;;;;;;;15.68;3.08;;;4.00;99.90;;;;;;6183596;23;20386;-90
2022/01/06 11:00:26;;;;;;;16.67;4.25;;;4.10;99.90;;;;;;6159848;23;20165;-89
2022/01/06 11:02:52;;;;;;;13.45;3.25;;;4.20;99.90;;;;;;6159372;23;20020;-89
2022/01/06 11:05:18;;;;;;;13.13;2.90;;;4.30;99.90;;;;;;6159391;23;20338;-90
2022/01/06 11:07:44;;;;;;;15.35;3.50;;;4.40;99.90;;;;;;6159363;23;20017;-89
2022/01/06 11:10:19;;;;;;;16.30;3.22;;;4.40;99.90;;;;;;6184845;23;20095;-90
2022/01/06 11:12:45;;;;;;;12.40;3.15;;;4.50;99.90;;;;;;6184505;23;20402;-90
2022/01/06 11:15:11;;;;;;;15.35;3.33;;;4.60;99.90;;;;;;6159689;23;20099;-91
2022/01/06 11:17:37;;;;;;;13.55;3.05;;;4.60;99.90;;;;;;6158563;23;20016;-89
2022/01/06 11:20:03;;;;;;;14.65;3.08;;;4.80;99.90;;;;;;6158962;23;20052;-89
2022/01/06 11:22:29;;;;;;;13.68;3.38;;;4.80;99.90;;;;;;6183743;23;20013;-88
2022/01/06 11:24:59;;;;;;;14.35;2.92;;;4.80;99.90;;;;;;6184204;23;20016;-91
2022/01/06 11:27:36;;;;;;;12.88;2.70;;;5.00;99.90;;;;;;6157048;23;20016;-90
2022/01/06 11:30:20;;;;;;;14.23;3.33;;;5.00;99.90;;;;;;6157292;23;20013;-90
2022/01/06 11:32:45;;;;;;;16.38;3.33;;;5.10;99.90;;;;;;6180690;23;20338;-90
2022/01/06 11:35:16;;;;;;;12.40;2.92;;;5.20;99.90;;;;;;6183868;23;20031;-90
2022/01/06 11:37:44;;;;;;;16.23;2.95;;;5.30;99.90;;;;;;6158544;23;20106;-90
2022/01/06 11:40:13;;;;;;;15.90;3.20;;;5.30;99.90;;;;;;6183958;23;20009;-90
2022/01/06 11:42:38;;;;;;;13.60;3.35;;;5.30;99.90;;;;;;6158448;23;20016;-90
2022/01/06 11:45:06;;;;;;;15.18;3.42;;;5.40;99.90;;;;;;6185115;23;20023;-89
2022/01/06 11:47:33;;;;;;;12.88;3.35;;;5.40;99.90;;;;;;6182989;23;20056;-89
2022/01/06 11:50:16;;;;;;;17.90;3.53;;;5.40;99.90;;;;;;6158948;23;20513;-89
2022/01/06 11:52:59;;;;;;;16.92;3.60;;;5.50;99.90;;;;;;6159074;23;20078;-89
2022/01/06 11:55:34;;;;;;;12.77;2.70;;;5.60;99.90;;;;;;6159370;23;20100;-90
2022/01/06 11:58:18;;;;;;;11.98;3.03;;;5.60;99.90;;;;;;6186105;23;20020;-88
2022/01/06 12:01:06;;;;;;;12.85;3.55;;;5.60;99.90;;;;;;6184844;23;20016;-91
2022/01/06 12:03:42;;;;;;;14.18;3.75;;;5.60;99.90;;;;;;6184429;23;20047;-90
2022/01/06 12:06:20;;;;;;;13.32;3.35;;;5.60;99.90;;;;;;6161407;23;20028;-91
2022/01/06 12:08:46;;;;;;;13.20;2.90;;;5.70;99.90;;;;;;6160213;23;20017;-90
2022/01/06 12:11:21;;;;;;;11.80;2.97;;;5.70;99.90;;;;;;6168976;23;20021;-89
2022/01/06 12:13:48;;;;;;;15.88;3.15;;;5.80;99.90;;;;;;6205769;23;20031;-90
2022/01/06 12:16:32;;;;;;;14.13;3.20;;;5.70;99.90;;;;;;6161567;23;20023;-91
2022/01/06 12:18:59;;;;;;;16.30;3.35;;;5.80;99.90;;;;;;6212296;23;20067;-89
2022/01/06 12:21:26;;;;;;;14.60;3.30;;;5.80;99.90;;;;;;6179095;23;20031;-92
2022/01/06 12:24:07;;;;;;;16.80;3.28;;;5.90;99.90;;;;;;6163049;23;20019;-93
2022/01/06 12:26:34;;;;;;;16.17;3.15;;;5.90;99.90;;;;;;6187496;23;20079;-93
2022/01/06 12:29:00;;;;;;;14.85;3.20;;;5.90;99.90;;;;;;6162917;23;20063;-94
2022/01/06 12:31:31;;;;;;;15.75;3.70;;;5.90;99.90;;;;;;6198348;23;20023;-96
2022/01/06 12:34:02;;;;;;;15.35;3.08;;;6.00;99.90;;;;;;6171418;23;20020;-96
2022/01/06 12:36:31;;;;;;;12.30;2.80;;;6.00;99.90;;;;;;6180063;23;20071;-96
2022/01/06 12:38:57;;;;;;;14.05;2.97;;;5.90;99.90;;;;;;6172964;23;20017;-96
2022/01/06 12:41:29;;;;;;;18.45;3.72;;;5.90;99.90;;;;;;6178232;23;20028;-96
2022/01/06 12:43:56;;;;;;;17.63;3.47;;;6.00;99.90;;;;;;6173609;23;20091;-96
2022/01/06 12:46:28;;;;;;;12.82;3.05;;;6.00;99.90;;;;;;6166289;23;20012;-96
2022/01/06 12:48:54;;;;;;;13.93;3.60;;;6.10;99.90;;;;;;6168717;23;20016;-96
2022/01/06 12:51:29;;;;;;;17.00;3.65;;;6.00;99.90;;;;;;6168712;23;20027;-96
2022/01/06 12:54:13;;;;;;;13.93;2.80;;;6.10;99.90;;;;;;6171782;23;20016;-96
2022/01/06 12:56:41;;;;;;;15.35;3.00;;;6.10;99.90;;;;;;6178693;23;20020;-96
2022/01/06 12:59:14;;;;;;;14.75;3.85;;;6.10;99.90;;;;;;6168028;23;20016;-96
2022/01/06 13:01:42;;;;;;;15.38;3.55;;;6.10;99.90;;;;;;6174568;23;20100;-96
2022/01/06 13:04:09;;;;;;;12.50;3.15;;;6.10;99.90;;;;;;6200987;23;20023;-96
2022/01/06 13:06:36;;;;;;;15.75;4.13;;;6.10;99.90;;;;;;6211995;23;20027;-96
2022/01/06 13:09:15;;;;;;;16.45;3.10;;;6.10;99.90;;;;;;6242326;22;20016;-96
2022/01/06 13:11:47;;;;;;;15.27;3.25;;;6.20;99.90;;;;;;6209247;23;20020;-96
2022/01/06 13:14:25;;;;;;;9.52;3.10;;;6.20;99.90;;;;;;6206039;23;20012;-96
2022/01/06 13:16:50;;;;;;;16.75;4.07;;;6.20;99.90;;;;;;6231854;23;20177;-96
2022/01/06 13:19:16;;;;;;;15.27;3.47;;;6.20;99.90;;;;;;6206411;23;20042;-96
2022/01/06 13:21:51;;;;;;;13.95;3.60;;;6.30;99.90;;;;;;6236817;23;20019;-96
2022/01/06 13:24:26;;;;;;;13.75;4.10;;;6.20;99.90;;;;;;6205567;23;20043;-96
2022/01/06 13:26:55;;;;;;;13.15;4.22;;;6.20;99.90;;;;;;6208175;23;20047;-96
2022/01/06 13:29:41;;;;;;;14.52;4.10;;;6.20;99.90;;;;;;6234142;23;20417;-96
2022/01/06 13:32:12;;;;;;;12.75;3.72;;;6.20;99.90;;;;;;6234871;23;20064;-96
2022/01/06 13:34:40;;;;;;;16.13;3.05;;;6.20;99.90;;;;;;6229506;23;20067;-96
2022/01/06 13:37:13;;;;;;;14.05;3.63;;;6.10;99.90;;;;;;6208353;23;20000;-96
2022/01/06 13:39:43;;;;;;;13.10;3.10;;;6.10;99.90;;;;;;6208104;23;20016;-96
2022/01/06 13:42:10;;;;;;;16.30;3.50;;;6.10;99.90;;;;;;6207502;23;20016;-96
2022/01/06 13:44:37;;;;;;;15.15;3.88;;;6.00;99.90;;;;;;6231626;23;20039;-96
2022/01/06 13:47:17;;;;;;;12.75;3.47;;;6.10;99.90;;;;;;6236314;23;20054;-96
2022/01/06 13:52:28;;;;;;;12.90;3.42;;;6.00;99.90;;;;;;6234951;23;20082;-96
2022/01/06 13:54:56;;;;;;;17.02;3.67;;;5.90;99.90;;;;;;6234279;23;20016;-96
2022/01/06 13:57:22;;;;;;;14.77;3.80;;;5.90;99.90;;;;;;6203784;23;20016;-96
2022/01/06 13:59:48;;;;;;;19.02;4.00;;;5.90;99.90;;;;;;6227994;23;20022;-96
2022/01/06 14:02:16;;;;;;;16.38;3.58;;;5.90;99.90;;;;;;6205039;23;20020;-96
2022/01/06 14:04:44;;;;;;;16.45;4.10;;;5.90;99.90;;;;;;6222234;23;20404;-96
2022/01/06 14:07:11;;;;;;;12.30;3.00;;;5.90;99.90;;;;;;6204958;23;20012;-96
2022/01/06 14:09:37;;;;;;;17.90;4.10;;;5.90;99.90;;;;;;6205321;23;20016;-96
2022/01/06 14:12:04;;;;;;;16.05;3.53;;;5.90;99.90;;;;;;6204095;23;20063;-96
2022/01/06 14:14:29;;;;;;;14.77;3.60;;;6.00;99.90;;;;;;6203491;23;20016;-96
2022/01/06 14:16:55;;;;;;;14.60;3.33;;;6.00;99.90;;;;;;6197081;23;20013;-96
2022/01/06 14:19:21;;;;;;;14.20;3.38;;;5.90;99.90;;;;;;6194962;23;20095;-96
2022/01/06 14:21:47;;;;;;;13.00;3.55;;;5.90;99.90;;;;;;6205263;23;20354;-96
2022/01/06 14:24:12;;;;;;;15.05;3.67;;;5.90;99.90;;;;;;6200716;23;20400;-95
2022/01/06 14:26:38;;;;;;;15.18;3.20;;;5.90;99.90;;;;;;6191392;23;20070;-94
2022/01/06 14:29:04;;;;;;;10.50;3.53;;;5.90;99.90;;;;;;6189976;23;20337;-91
2022/01/06 14:31:30;;;;;;;19.52;3.63;;;5.90;99.90;;;;;;6189332;23;20016;-89
2022/01/06 14:33:56;;;;;;;14.40;3.05;;;5.90;99.90;;;;;;6189769;23;20012;-89
2022/01/06 14:36:21;;;;;;;13.20;3.70;;;5.80;99.90;;;;;;6189938;23;20078;-91
2022/01/06 14:38:49;;;;;;;11.07;3.42;;;5.70;99.90;;;;;;6188874;23;20468;-91
2022/01/06 14:41:18;;;;;;;13.10;3.30;;;5.70;99.90;;;;;;6190158;23;20087;-91
2022/01/06 14:43:44;;;;;;;13.82;3.42;;;5.60;99.90;;;;;;6188926;23;20020;-90
2022/01/06 14:46:19;;;;;;;13.90;4.00;;;5.60;99.90;;;;;;6190124;23;20012;-90
2022/01/06 14:48:46;;;;;;;15.25;3.97;;;5.50;99.90;;;;;;6188826;23;20102;-90
2022/01/06 14:51:14;;;;;;;15.30;3.85;;;5.50;99.90;;;;;;6190366;23;20038;-90
2022/01/06 14:53:40;;;;;;;15.88;3.70;;;5.50;99.90;;;;;;6192380;23;20012;-95
2022/01/06 14:56:06;;;;;;;15.95;3.55;;;5.50;99.90;;;;;;6191550;23;20009;-94
2022/01/06 14:58:32;;;;;;;13.02;3.22;;;5.40;99.90;;;;;;6193574;23;20062;-96
2022/01/06 15:00:57;;;;;;;14.90;3.38;;;5.50;99.90;;;;;;6194569;23;20020;-96
2022/01/06 15:03:23;;;;;;;13.30;3.20;;;5.40;99.90;;;;;;6194118;23;20020;-95
2022/01/06 15:05:49;;;;;;;17.30;3.80;;;5.40;99.90;;;;;;6204136;22;20004;-96
2022/01/06 15:08:15;;;;;;;15.82;3.47;;;5.30;99.90;;;;;;6242350;22;20005;-94
2022/01/06 15:10:41;;;;;;;14.65;4.20;;;5.20;99.90;;;;;;6202490;23;20024;-94
2022/01/06 15:13:06;;;;;;;14.27;3.63;;;5.10;99.90;;;;;;6237218;22;20019;-93
2022/01/06 15:15:32;;;;;;;12.80;3.33;;;5.00;99.90;;;;;;6244060;22;20005;-94
2022/01/06 15:17:57;;;;;;;14.63;3.22;;;5.10;99.90;;;;;;6202873;23;20013;-95
2022/01/06 15:20:24;;;;;;;15.50;3.50;;;4.90;99.90;;;;;;6198866;22;20019;-94
2022/01/06 15:22:50;;;;;;;13.18;3.47;;;4.80;99.90;;;;;;6247515;22;20348;-94
2022/01/06 15:25:16;;;;;;;14.75;3.00;;;4.80;99.90;;;;;;6223115;22;20011;-94
2022/01/06 15:27:43;;;;;;;16.13;3.17;;;4.80;99.90;;;;;;6221747;22;20444;-94
2022/01/06 15:30:09;;;;;;;13.50;3.03;;;4.70;99.90;;;;;;6222977;22;20027;-94
2022/01/06 15:32:44;;;;;;;14.02;3.67;;;4.70;99.90;;;;;;6223590;22;20030;-94
2022/01/06 15:35:10;;;;;;;12.27;2.65;;;4.70;99.90;;;;;;6223012;22;20024;-94
2022/01/06 15:37:36;;;;;;;11.07;3.10;;;4.70;99.90;;;;;;6247488;22;20330;-95
2022/01/06 15:40:02;;;;;;;16.40;2.85;;;4.70;99.90;;;;;;6221484;22;20020;-94
2022/01/06 15:42:27;;;;;;;9.63;3.03;;;4.70;99.90;;;;;;6222651;22;20015;-94
2022/01/06 15:44:54;;;;;;;12.20;3.13;;;4.60;99.90;;;;;;6222871;22;20015;-95
2022/01/06 15:47:20;;;;;;;13.80;3.42;;;4.60;99.90;;;;;;6224078;22;20086;-94
2022/01/06 15:49:51;;;;;;;13.60;2.65;;;4.60;99.90;;;;;;6248188;22;20062;-94
2022/01/06 15:52:16;;;;;;;12.57;2.88;;;4.60;99.90;;;;;;6223783;22;20008;-95
2022/01/06 15:54:42;;;;;;;11.73;2.92;;;4.60;99.90;;;;;;6223000;22;20016;-94
2022/01/06 15:57:08;;;;;;;11.15;2.55;;;4.70;99.90;;;;;;6249026;22;20073;-94
2022/01/06 15:59:38;;;;;;;12.40;3.30;;;4.70;99.90;;;;;;6223478;22;20012;-95
2022/01/06 16:05:01;;;;;;;10.68;2.72;;;4.70;99.90;;;;;;6255697;22;20529;-96
2022/01/06 16:07:27;;;;;;;13.82;2.75;;;4.50;99.90;;;;;;6232789;22;20026;-96
2022/01/06 16:09:52;;;;;;;10.02;2.63;;;4.50;99.90;;;;;;6248107;22;20020;-96
2022/01/06 16:12:18;;;;;;;12.38;2.85;;;4.50;99.90;;;;;;6225997;22;20054;-96
2022/01/06 16:14:43;;;;;;;13.25;2.45;;;4.40;99.90;;;;;;6250022;22;20019;-96
2022/01/06 16:17:09;;;;;;;11.15;3.15;;;4.30;99.90;;;;;;6224289;22;20027;-96
2022/01/06 16:19:35;;;;;;;12.25;3.08;;;4.30;99.90;;;;;;6223940;22;20008;-96
2022/01/06 16:22:01;;;;;;;12.63;2.85;;;4.20;99.90;;;;;;6270153;22;20019;-96
2022/01/06 16:24:27;;;;;;;13.68;3.55;;;4.20;99.90;;;;;;6279106;22;20015;-95
2022/01/06 16:26:54;;;;;;;10.30;2.78;;;4.10;99.90;;;;;;6253908;22;20016;-96
2022/01/06 16:29:20;;;;;;;11.98;2.60;;;4.10;99.90;;;;;;6279725;22;20016;-96
2022/01/06 16:31:46;;;;;;;12.77;3.25;;;4.10;99.90;;;;;;6254630;22;20059;-95
2022/01/06 16:34:13;;;;;;;11.93;3.53;;;4.00;99.90;;;;;;6254715;22;20361;-96
2022/01/06 16:36:39;;;;;;;14.57;3.13;;;4.00;99.90;;;;;;6279821;22;20088;-94
2022/01/06 16:39:07;;;;;;;16.25;3.13;;;4.00;99.90;;;;;;6255613;22;20015;-95
2022/01/06 16:41:33;;;;;;;11.43;3.05;;;4.00;99.90;;;;;;6254095;22;20011;-96
2022/01/06 16:44:01;;;;;;;14.23;3.53;;;3.90;99.90;;;;;;6280082;22;20475;-96
2022/01/06 16:46:27;;;;;;;13.45;3.10;;;3.90;99.90;;;;;;6255250;22;20026;-96
2022/01/06 16:48:52;;;;;;;12.38;3.28;;;3.80;99.90;;;;;;6279840;22;20011;-96
2022/01/06 16:51:19;;;;;;;11.90;3.15;;;3.80;99.90;;;;;;6254936;22;20078;-95
2022/01/06 16:53:45;;;;;;;11.00;3.47;;;3.80;99.90;;;;;;6278157;22;20037;-95
2022/01/06 16:56:10;;;;;;;12.45;3.60;;;3.80;99.90;;;;;;6259211;22;20043;-96
2022/01/06 16:58:36;;;;;;;11.57;3.33;;;3.80;99.90;;;;;;6253140;22;20015;-96
2022/01/06 17:01:02;;;;;;;12.10;3.25;;;3.80;99.90;;;;;;6261524;22;20020;-96
2022/01/06 17:03:27;;;;;;;13.43;3.67;;;3.80;99.90;;;;;;6257322;22;20012;-96
2022/01/06 17:05:53;;;;;;;13.13;4.25;;;3.90;99.90;;;;;;6281894;22;20390;-96
2022/01/06 17:08:19;;;;;;;13.50;3.90;;;3.90;99.90;;;;;;6283789;22;20031;-96
2022/01/06 17:10:44;;;;;;;16.08;3.95;;;3.90;99.90;;;;;;6254272;22;20455;-96
2022/01/06 17:13:10;;;;;;;12.52;4.28;;;3.90;99.90;;;;;;6254141;22;20022;-95
2022/01/06 17:15:36;;;;;;;13.55;4.00;;;4.00;99.90;;;;;;6278241;22;20011;-96
2022/01/06 17:18:01;;;;;;;12.63;3.75;;;4.00;99.90;;;;;;6253944;22;20386;-95
2022/01/06 17:20:27;;;;;;;11.50;4.05;;;4.00;99.90;;;;;;6259605;22;20015;-96
2022/01/06 17:22:53;;;;;;;12.90;3.95;;;4.10;99.90;;;;;;6282351;22;20026;-96
2022/01/06 17:25:20;;;;;;;13.52;4.30;;;4.10;99.90;;;;;;6279701;22;20107;-96
2022/01/06 17:27:45;;;;;;;18.05;5.55;;;4.10;99.90;;;;;;6256142;22;20102;-96
2022/01/06 17:30:11;;;;;;;11.20;4.15;;;4.10;99.90;;;;;;6257282;22;20016;-96
2022/01/06 17:32:37;;;;;;;12.32;4.38;;;4.10;99.90;;;;;;6279865;22;20026;-95
2022/01/06 17:35:04;;;;;;;15.45;4.13;;;4.20;99.90;;;;;;6252191;22;20019;-96
2022/01/06 17:37:30;;;;;;;12.65;4.15;;;4.10;99.90;;;;;;6281412;22;20015;-96
2022/01/06 17:39:56;;;;;;;14.88;4.68;;;4.10;99.90;;;;;;6298517;22;20022;-96
2022/01/06 17:42:22;;;;;;;12.18;4.57;;;4.10;99.90;;;;;;6295454;22;20090;-96
2022/01/06 17:44:48;;;;;;;15.25;4.75;;;4.10;99.90;;;;;;6292118;22;20023;-96
2022/01/06 17:47:18;;;;;;;15.32;4.78;;;4.10;99.90;;;;;;6267707;22;20168;-96
2022/01/06 17:49:45;;;;;;;14.80;4.53;;;4.00;99.90;;;;;;6256536;22;20018;-96
2022/01/06 17:52:11;;;;;;;10.90;4.82;;;4.00;99.90;;;;;;6278835;22;20022;-96
2022/01/06 17:54:38;;;;;;;13.07;4.97;;;4.00;99.90;;;;;;6251949;22;20233;-94
2022/01/06 17:57:04;;;;;;;14.13;4.70;;;4.00;99.90;;;;;;6253868;22;20026;-94
2022/01/06 17:59:30;;;;;;;17.27;5.03;;;4.00;99.90;;;;;;6254387;22;20018;-92
2022/01/06 18:01:57;;;;;;;15.30;4.60;;;3.90;99.90;;;;;;6270430;22;20019;-90
2022/01/06 18:04:23;;;;;;;12.60;4.68;;;3.90;99.90;;;;;;6275676;22;20034;-90
2022/01/06 18:06:55;;;;;;;14.88;4.68;;;3.90;99.90;;;;;;6283125;22;20015;-91
2022/01/06 18:12:06;;;;;;;11.82;4.55;;;3.90;99.90;;;;;;6292447;22;20037;-91
2022/01/06 18:14:32;;;;;;;14.52;5.07;;;3.90;99.90;;;;;;6280125;22;20344;-90
2022/01/06 18:16:58;;;;;;;15.73;5.63;;;3.90;99.90;;;;;;6252969;22;20018;-90
2022/01/06 18:19:24;;;;;;;16.38;5.07;;;3.90;99.90;;;;;;6251955;22;20309;-92
2022/01/06 18:21:51;;;;;;;14.27;5.57;;;3.90;99.90;;;;;;6251185;22;20352;-91
2022/01/06 18:24:16;;;;;;;14.65;5.40;;;3.90;99.90;;;;;;6277229;22;20407;-92
2022/01/06 18:26:42;;;;;;;15.38;5.20;;;3.90;99.90;;;;;;6250931;22;20019;-91
2022/01/06 18:29:08;;;;;;;16.38;5.95;;;3.80;99.90;;;;;;6251570;22;20011;-90
2022/01/06 18:31:35;;;;;;;12.45;4.75;;;3.80;99.90;;;;;;6250632;22;20068;-91
2022/01/06 18:34:01;;;;;;;17.92;5.63;;;3.90;99.90;;;;;;6250614;22;20030;-89
2022/01/06 18:36:27;;;;;;;14.98;5.47;;;3.80;99.90;;;;;;6250295;22;20046;-90
2022/01/06 18:38:54;;;;;;;13.32;5.00;;;3.80;99.90;;;;;;6275778;22;20012;-91
2022/01/06 18:41:21;;;;;;;14.48;5.55;;;3.80;99.90;;;;;;6276702;22;20015;-91
2022/01/06 18:43:47;;;;;;;18.27;6.05;;;3.80;99.90;;;;;;6249475;22;20356;-91
2022/01/06 18:46:13;;;;;;;13.18;5.60;;;3.70;99.90;;;;;;6251334;22;20091;-92
2022/01/06 18:48:39;;;;;;;13.82;5.35;;;3.70;99.90;;;;;;6247091;22;20064;-91
2022/01/06 18:51:05;;;;;;;14.48;6.05;;;3.70;99.90;;;;;;6250591;22;20011;-90
2022/01/06 18:53:32;;;;;;;17.40;5.93;;;3.70;99.90;;;;;;6249585;22;20439;-90
2022/01/06 18:55:58;;;;;;;15.10;5.72;;;3.70;99.90;;;;;;6250371;22;20015;-90
2022/01/06 18:58:24;;;;;;;15.85;5.28;;;3.70;99.90;;;;;;6250354;22;20022;-90
2022/01/06 19:00:50;;;;;;;19.25;6.38;;;3.70;99.90;;;;;;6249218;22;20319;-89
2022/01/06 19:03:16;;;;;;;20.23;6.35;;;3.70;99.90;;;;;;6250264;22;20015;-89
2022/01/06 19:05:42;;;;;;;16.15;6.28;;;3.70;99.90;;;;;;6250977;22;20355;-91
2022/01/06 19:08:07;;;;;;;18.88;6.00;;;3.70;99.90;;;;;;6278525;22;20015;-92
2022/01/06 19:10:33;;;;;;;17.40;5.88;;;3.70;99.90;;;;;;6251803;22;20509;-91
2022/01/06 19:13:02;;;;;;;15.13;5.80;;;3.70;99.90;;;;;;6251779;22;20015;-91
2022/01/06 19:15:28;;;;;;;16.42;6.47;;;3.60;99.90;;;;;;6250752;22;20090;-91